sensor_id;sensor_type;location;lat;lon;timestamp;P1;durP1;ratioP1;P2;durP2;ratioP2
23474;SDS011;11910;52.086;21.066;2023-03-02T00:00:44;123.03;;;59.97;;
23474;SDS011;11910;52.086;21.066;2023-03-02T00:03:10;123.30;;;61.67;;
23474;SDS011;11910;52.086;21.066;2023-03-02T00:05:38;110.60;;;57.42;;
23474;SDS011;11910;52.086;21.066;2023-03-02T00:08:05;122.40;;;60.92;;
23474;SDS011;11910;52.086;21.066;2023-03-02T00:10:33;103.68;;;53.67;;
23474;SDS011;11910;52.086;21.066;2023-03-02T00:12:59;126.70;;;61.33;;
23474;SDS011;11910;52.086;21.066;2023-03-02T00:15:25;124.47;;;63.22;;
23474;SDS011;11910;52.086;21.066;2023-03-02T00:17:50;118.88;;;60.28;;
23474;SDS011;11910;52.086;21.066;2023-03-02T00:20:16;114.90;;;59.80;;
23474;SDS011;11910;52.086;21.066;2023-03-02T00:22:42;144.25;;;70.00;;
23474;SDS011;11910;52.086;21.066;2023-03-02T00:25:09;118.28;;;59.83;;
23474;SDS011;11910;52.086;21.066;2023-03-02T00:27:36;131.32;;;60.97;;
23474;SDS011;11910;52.086;21.066;2023-03-02T00:30:02;128.25;;;62.05;;
23474;SDS011;11910;52.086;21.066;2023-03-02T00:32:28;118.00;;;59.90;;
23474;SDS011;11910;52.086;21.066;2023-03-02T00:34:53;128.63;;;60.78;;
23474;SDS011;11910;52.086;21.066;2023-03-02T00:37:19;123.32;;;58.58;;
23474;SDS011;11910;52.086;21.066;2023-03-02T00:39:44;119.28;;;58.22;;
23474;SDS011;11910;52.086;21.066;2023-03-02T00:42:10;125.90;;;61.22;;
23474;SDS011;11910;52.086;21.066;2023-03-02T00:44:36;123.38;;;61.90;;
23474;SDS011;11910;52.086;21.066;2023-03-02T00:47:01;126.80;;;63.08;;
23474;SDS011;11910;52.086;21.066;2023-03-02T00:49:27;133.85;;;64.95;;
23474;SDS011;11910;52.086;21.066;2023-03-02T00:51:52;123.47;;;59.90;;
23474;SDS011;11910;52.086;21.066;2023-03-02T00:54:18;113.50;;;56.38;;
23474;SDS011;11910;52.086;21.066;2023-03-02T00:56:44;110.07;;;56.10;;
23474;SDS011;11910;52.086;21.066;2023-03-02T00:59:11;113.22;;;55.70;;
23474;SDS011;11910;52.086;21.066;2023-03-02T01:01:56;103.97;;;55.63;;
23474;SDS011;11910;52.086;21.066;2023-03-02T01:04:31;110.60;;;55.60;;
23474;SDS011;11910;52.086;21.066;2023-03-02T01:06:59;108.30;;;56.53;;
23474;SDS011;11910;52.086;21.066;2023-03-02T01:09:28;110.65;;;55.40;;
23474;SDS011;11910;52.086;21.066;2023-03-02T01:11:54;105.30;;;53.35;;
23474;SDS011;11910;52.086;21.066;2023-03-02T01:14:20;104.28;;;54.15;;
23474;SDS011;11910;52.086;21.066;2023-03-02T01:16:46;96.10;;;50.45;;
23474;SDS011;11910;52.086;21.066;2023-03-02T01:19:14;111.30;;;55.28;;
23474;SDS011;11910;52.086;21.066;2023-03-02T01:21:40;111.70;;;57.15;;
23474;SDS011;11910;52.086;21.066;2023-03-02T01:24:08;107.38;;;55.03;;
23474;SDS011;11910;52.086;21.066;2023-03-02T01:26:34;109.20;;;54.95;;
23474;SDS011;11910;52.086;21.066;2023-03-02T01:29:00;108.70;;;56.33;;
23474;SDS011;11910;52.086;21.066;2023-03-02T01:31:26;110.70;;;57.13;;
23474;SDS011;11910;52.086;21.066;2023-03-02T01:33:53;97.55;;;50.42;;
23474;SDS011;11910;52.086;21.066;2023-03-02T01:36:19;108.03;;;55.40;;
23474;SDS011;11910;52.086;21.066;2023-03-02T01:38:45;98.43;;;52.15;;
23474;SDS011;11910;52.086;21.066;2023-03-02T01:41:11;104.72;;;53.10;;
23474;SDS011;11910;52.086;21.066;2023-03-02T01:43:37;103.30;;;55.47;;
23474;SDS011;11910;52.086;21.066;2023-03-02T01:46:04;103.82;;;55.85;;
23474;SDS011;11910;52.086;21.066;2023-03-02T01:51:06;102.05;;;55.63;;
23474;SDS011;11910;52.086;21.066;2023-03-02T01:53:40;95.75;;;52.75;;
23474;SDS011;11910;52.086;21.066;2023-03-02T01:56:10;92.32;;;50.42;;
23474;SDS011;11910;52.086;21.066;2023-03-02T01:58:42;98.70;;;52.38;;
23474;SDS011;11910;52.086;21.066;2023-03-02T02:01:09;92.97;;;50.80;;
23474;SDS011;11910;52.086;21.066;2023-03-02T02:06:11;100.32;;;53.72;;
23474;SDS011;11910;52.086;21.066;2023-03-02T02:08:48;98.93;;;51.25;;
23474;SDS011;11910;52.086;21.066;2023-03-02T02:11:15;104.20;;;53.25;;
23474;SDS011;11910;52.086;21.066;2023-03-02T02:13:41;94.55;;;48.70;;
23474;SDS011;11910;52.086;21.066;2023-03-02T02:16:07;106.63;;;57.15;;
23474;SDS011;11910;52.086;21.066;2023-03-02T02:18:34;109.15;;;57.50;;
23474;SDS011;11910;52.086;21.066;2023-03-02T02:21:02;93.75;;;51.85;;
23474;SDS011;11910;52.086;21.066;2023-03-02T02:26:25;97.97;;;54.08;;
23474;SDS011;11910;52.086;21.066;2023-03-02T02:29:03;105.00;;;56.40;;
23474;SDS011;11910;52.086;21.066;2023-03-02T02:34:46;87.70;;;47.40;;
23474;SDS011;11910;52.086;21.066;2023-03-02T02:37:16;88.38;;;47.08;;
23474;SDS011;11910;52.086;21.066;2023-03-02T02:39:50;83.50;;;43.67;;
23474;SDS011;11910;52.086;21.066;2023-03-02T02:42:17;82.03;;;39.42;;
23474;SDS011;11910;52.086;21.066;2023-03-02T02:44:55;78.43;;;39.85;;
23474;SDS011;11910;52.086;21.066;2023-03-02T02:47:22;83.70;;;38.78;;
23474;SDS011;11910;52.086;21.066;2023-03-02T02:49:50;80.63;;;37.53;;
23474;SDS011;11910;52.086;21.066;2023-03-02T02:52:19;94.93;;;39.70;;
23474;SDS011;11910;52.086;21.066;2023-03-02T02:54:47;81.05;;;38.88;;
23474;SDS011;11910;52.086;21.066;2023-03-02T02:57:15;83.55;;;38.00;;
23474;SDS011;11910;52.086;21.066;2023-03-02T02:59:49;78.38;;;37.30;;
23474;SDS011;11910;52.086;21.066;2023-03-02T03:02:18;76.30;;;36.60;;
23474;SDS011;11910;52.086;21.066;2023-03-02T03:04:46;87.43;;;38.50;;
23474;SDS011;11910;52.086;21.066;2023-03-02T03:07:19;91.25;;;37.83;;
23474;SDS011;11910;52.086;21.066;2023-03-02T03:10:09;85.95;;;38.35;;
23474;SDS011;11910;52.086;21.066;2023-03-02T03:12:32;76.57;;;36.08;;
23474;SDS011;11910;52.086;21.066;2023-03-02T03:14:59;79.80;;;38.50;;
23474;SDS011;11910;52.086;21.066;2023-03-02T03:17:26;81.25;;;37.95;;
23474;SDS011;11910;52.086;21.066;2023-03-02T03:19:52;86.10;;;38.75;;
23474;SDS011;11910;52.086;21.066;2023-03-02T03:22:18;79.25;;;38.10;;
23474;SDS011;11910;52.086;21.066;2023-03-02T03:24:43;78.50;;;37.45;;
23474;SDS011;11910;52.086;21.066;2023-03-02T03:27:11;83.43;;;39.63;;
23474;SDS011;11910;52.086;21.066;2023-03-02T03:29:39;85.20;;;39.38;;
23474;SDS011;11910;52.086;21.066;2023-03-02T03:32:08;87.20;;;38.63;;
23474;SDS011;11910;52.086;21.066;2023-03-02T03:34:34;86.53;;;40.22;;
23474;SDS011;11910;52.086;21.066;2023-03-02T03:37:09;79.82;;;37.50;;
23474;SDS011;11910;52.086;21.066;2023-03-02T03:39:36;77.82;;;37.65;;
23474;SDS011;11910;52.086;21.066;2023-03-02T03:42:02;80.85;;;36.92;;
23474;SDS011;11910;52.086;21.066;2023-03-02T03:44:29;80.80;;;37.97;;
23474;SDS011;11910;52.086;21.066;2023-03-02T03:46:55;82.65;;;36.80;;
23474;SDS011;11910;52.086;21.066;2023-03-02T03:49:21;84.45;;;38.05;;
23474;SDS011;11910;52.086;21.066;2023-03-02T03:51:46;85.50;;;38.17;;
23474;SDS011;11910;52.086;21.066;2023-03-02T03:54:12;77.95;;;37.92;;
23474;SDS011;11910;52.086;21.066;2023-03-02T03:56:39;81.82;;;38.00;;
23474;SDS011;11910;52.086;21.066;2023-03-02T03:59:08;76.70;;;36.35;;
23474;SDS011;11910;52.086;21.066;2023-03-02T04:01:39;81.75;;;39.97;;
23474;SDS011;11910;52.086;21.066;2023-03-02T04:04:07;87.13;;;38.78;;
23474;SDS011;11910;52.086;21.066;2023-03-02T04:06:35;85.47;;;40.72;;
23474;SDS011;11910;52.086;21.066;2023-03-02T04:09:01;84.93;;;40.10;;
23474;SDS011;11910;52.086;21.066;2023-03-02T04:11:29;85.60;;;37.85;;
23474;SDS011;11910;52.086;21.066;2023-03-02T04:13:56;81.05;;;35.92;;
23474;SDS011;11910;52.086;21.066;2023-03-02T04:16:21;83.05;;;37.75;;
23474;SDS011;11910;52.086;21.066;2023-03-02T04:18:47;84.10;;;38.67;;
23474;SDS011;11910;52.086;21.066;2023-03-02T04:21:12;87.43;;;37.75;;
23474;SDS011;11910;52.086;21.066;2023-03-02T04:23:38;85.20;;;38.47;;
23474;SDS011;11910;52.086;21.066;2023-03-02T04:26:04;81.60;;;37.67;;
23474;SDS011;11910;52.086;21.066;2023-03-02T04:28:30;75.45;;;35.90;;
23474;SDS011;11910;52.086;21.066;2023-03-02T04:30:56;80.78;;;37.50;;
23474;SDS011;11910;52.086;21.066;2023-03-02T04:33:21;86.22;;;37.88;;
23474;SDS011;11910;52.086;21.066;2023-03-02T04:35:47;77.97;;;36.95;;
23474;SDS011;11910;52.086;21.066;2023-03-02T04:38:13;80.15;;;36.90;;
23474;SDS011;11910;52.086;21.066;2023-03-02T04:40:38;80.57;;;37.58;;
23474;SDS011;11910;52.086;21.066;2023-03-02T04:43:04;84.60;;;37.67;;
23474;SDS011;11910;52.086;21.066;2023-03-02T04:45:30;78.53;;;35.63;;
23474;SDS011;11910;52.086;21.066;2023-03-02T04:47:55;86.45;;;37.45;;
23474;SDS011;11910;52.086;21.066;2023-03-02T04:50:21;77.60;;;35.13;;
23474;SDS011;11910;52.086;21.066;2023-03-02T04:52:46;75.78;;;35.10;;
23474;SDS011;11910;52.086;21.066;2023-03-02T04:55:14;73.47;;;34.17;;
23474;SDS011;11910;52.086;21.066;2023-03-02T04:57:44;76.28;;;36.00;;
23474;SDS011;11910;52.086;21.066;2023-03-02T05:00:10;74.20;;;34.67;;
23474;SDS011;11910;52.086;21.066;2023-03-02T05:02:36;69.55;;;34.10;;
23474;SDS011;11910;52.086;21.066;2023-03-02T05:05:04;75.22;;;34.58;;
23474;SDS011;11910;52.086;21.066;2023-03-02T05:07:29;78.95;;;36.00;;
23474;SDS011;11910;52.086;21.066;2023-03-02T05:09:55;73.78;;;35.20;;
23474;SDS011;11910;52.086;21.066;2023-03-02T05:12:21;68.55;;;33.40;;
23474;SDS011;11910;52.086;21.066;2023-03-02T05:14:46;80.68;;;35.63;;
23474;SDS011;11910;52.086;21.066;2023-03-02T05:17:12;78.90;;;36.33;;
23474;SDS011;11910;52.086;21.066;2023-03-02T05:19:38;79.00;;;37.08;;
23474;SDS011;11910;52.086;21.066;2023-03-02T05:22:04;92.28;;;38.88;;
23474;SDS011;11910;52.086;21.066;2023-03-02T05:24:29;95.97;;;40.13;;
23474;SDS011;11910;52.086;21.066;2023-03-02T05:26:55;90.18;;;39.25;;
23474;SDS011;11910;52.086;21.066;2023-03-02T05:29:20;83.72;;;36.08;;
23474;SDS011;11910;52.086;21.066;2023-03-02T05:31:46;83.72;;;36.72;;
23474;SDS011;11910;52.086;21.066;2023-03-02T05:34:13;88.55;;;39.00;;
23474;SDS011;11910;52.086;21.066;2023-03-02T05:36:43;78.75;;;36.15;;
23474;SDS011;11910;52.086;21.066;2023-03-02T05:39:09;90.80;;;38.15;;
23474;SDS011;11910;52.086;21.066;2023-03-02T05:41:35;84.07;;;38.20;;
23474;SDS011;11910;52.086;21.066;2023-03-02T05:44:01;86.45;;;39.60;;
23474;SDS011;11910;52.086;21.066;2023-03-02T05:46:27;88.00;;;40.15;;
23474;SDS011;11910;52.086;21.066;2023-03-02T05:48:53;78.82;;;35.25;;
23474;SDS011;11910;52.086;21.066;2023-03-02T05:51:18;88.40;;;39.55;;
23474;SDS011;11910;52.086;21.066;2023-03-02T05:53:44;80.80;;;36.47;;
23474;SDS011;11910;52.086;21.066;2023-03-02T05:56:10;81.07;;;37.88;;
23474;SDS011;11910;52.086;21.066;2023-03-02T05:58:36;84.60;;;38.55;;
23474;SDS011;11910;52.086;21.066;2023-03-02T06:01:01;80.88;;;37.92;;
23474;SDS011;11910;52.086;21.066;2023-03-02T06:03:32;77.55;;;36.13;;
23474;SDS011;11910;52.086;21.066;2023-03-02T06:05:57;82.28;;;37.40;;
23474;SDS011;11910;52.086;21.066;2023-03-02T06:08:23;81.07;;;37.42;;
23474;SDS011;11910;52.086;21.066;2023-03-02T06:10:48;80.80;;;38.10;;
23474;SDS011;11910;52.086;21.066;2023-03-02T06:13:14;86.25;;;38.60;;
23474;SDS011;11910;52.086;21.066;2023-03-02T06:15:40;75.88;;;35.70;;
23474;SDS011;11910;52.086;21.066;2023-03-02T06:18:07;92.00;;;39.03;;
23474;SDS011;11910;52.086;21.066;2023-03-02T06:20:32;82.88;;;38.05;;
23474;SDS011;11910;52.086;21.066;2023-03-02T06:22:58;88.90;;;38.97;;
23474;SDS011;11910;52.086;21.066;2023-03-02T06:25:23;85.07;;;39.03;;
23474;SDS011;11910;52.086;21.066;2023-03-02T06:27:50;80.65;;;37.50;;
23474;SDS011;11910;52.086;21.066;2023-03-02T06:30:18;77.35;;;36.00;;
23474;SDS011;11910;52.086;21.066;2023-03-02T06:32:46;85.60;;;37.58;;
23474;SDS011;11910;52.086;21.066;2023-03-02T06:35:11;76.57;;;37.22;;
23474;SDS011;11910;52.086;21.066;2023-03-02T06:37:37;84.95;;;37.03;;
23474;SDS011;11910;52.086;21.066;2023-03-02T06:40:03;82.57;;;37.70;;
23474;SDS011;11910;52.086;21.066;2023-03-02T06:42:37;77.75;;;36.67;;
23474;SDS011;11910;52.086;21.066;2023-03-02T06:45:03;77.10;;;37.13;;
23474;SDS011;11910;52.086;21.066;2023-03-02T06:47:30;78.55;;;37.33;;
23474;SDS011;11910;52.086;21.066;2023-03-02T06:49:57;76.15;;;36.92;;
23474;SDS011;11910;52.086;21.066;2023-03-02T06:52:23;78.85;;;38.58;;
23474;SDS011;11910;52.086;21.066;2023-03-02T06:54:48;86.95;;;40.38;;
23474;SDS011;11910;52.086;21.066;2023-03-02T06:57:14;78.78;;;36.67;;
23474;SDS011;11910;52.086;21.066;2023-03-02T06:59:39;77.78;;;38.05;;
23474;SDS011;11910;52.086;21.066;2023-03-02T07:02:05;81.40;;;39.72;;
23474;SDS011;11910;52.086;21.066;2023-03-02T07:04:31;83.82;;;39.00;;
23474;SDS011;11910;52.086;21.066;2023-03-02T07:06:56;79.78;;;38.63;;
23474;SDS011;11910;52.086;21.066;2023-03-02T07:09:22;84.47;;;39.17;;
23474;SDS011;11910;52.086;21.066;2023-03-02T07:11:48;78.38;;;38.38;;
23474;SDS011;11910;52.086;21.066;2023-03-02T07:14:14;76.82;;;38.65;;
23474;SDS011;11910;52.086;21.066;2023-03-02T07:16:42;78.70;;;36.47;;
23474;SDS011;11910;52.086;21.066;2023-03-02T07:19:13;83.70;;;39.10;;
23474;SDS011;11910;52.086;21.066;2023-03-02T07:21:39;81.43;;;37.40;;
23474;SDS011;11910;52.086;21.066;2023-03-02T07:24:05;81.72;;;37.47;;
23474;SDS011;11910;52.086;21.066;2023-03-02T07:26:31;78.20;;;37.33;;
23474;SDS011;11910;52.086;21.066;2023-03-02T07:28:57;77.43;;;37.65;;
23474;SDS011;11910;52.086;21.066;2023-03-02T07:31:26;76.65;;;36.13;;
23474;SDS011;11910;52.086;21.066;2023-03-02T07:33:52;73.93;;;36.72;;
23474;SDS011;11910;52.086;21.066;2023-03-02T07:36:20;76.38;;;37.20;;
23474;SDS011;11910;52.086;21.066;2023-03-02T07:38:46;79.55;;;38.08;;
23474;SDS011;11910;52.086;21.066;2023-03-02T07:41:12;76.60;;;37.88;;
23474;SDS011;11910;52.086;21.066;2023-03-02T07:43:40;79.70;;;38.40;;
23474;SDS011;11910;52.086;21.066;2023-03-02T07:46:06;73.15;;;36.47;;
23474;SDS011;11910;52.086;21.066;2023-03-02T07:48:34;73.25;;;36.08;;
23474;SDS011;11910;52.086;21.066;2023-03-02T07:51:00;76.30;;;37.17;;
23474;SDS011;11910;52.086;21.066;2023-03-02T07:53:27;73.32;;;36.08;;
23474;SDS011;11910;52.086;21.066;2023-03-02T07:55:55;64.53;;;33.88;;
23474;SDS011;11910;52.086;21.066;2023-03-02T07:58:21;73.53;;;35.05;;
23474;SDS011;11910;52.086;21.066;2023-03-02T08:00:48;71.00;;;34.85;;
23474;SDS011;11910;52.086;21.066;2023-03-02T08:03:14;71.30;;;34.45;;
23474;SDS011;11910;52.086;21.066;2023-03-02T08:05:42;71.50;;;34.85;;
23474;SDS011;11910;52.086;21.066;2023-03-02T08:08:08;67.07;;;33.75;;
23474;SDS011;11910;52.086;21.066;2023-03-02T08:10:34;68.55;;;34.60;;
23474;SDS011;11910;52.086;21.066;2023-03-02T08:13:00;67.97;;;33.50;;
23474;SDS011;11910;52.086;21.066;2023-03-02T08:15:26;69.47;;;34.22;;
23474;SDS011;11910;52.086;21.066;2023-03-02T08:17:51;66.45;;;32.80;;
23474;SDS011;11910;52.086;21.066;2023-03-02T08:20:21;64.22;;;30.88;;
23474;SDS011;11910;52.086;21.066;2023-03-02T08:22:49;59.80;;;31.10;;
23474;SDS011;11910;52.086;21.066;2023-03-02T08:25:15;59.13;;;30.45;;
23474;SDS011;11910;52.086;21.066;2023-03-02T08:27:42;121.13;;;35.92;;
23474;SDS011;11910;52.086;21.066;2023-03-02T08:30:11;62.90;;;32.40;;
23474;SDS011;11910;52.086;21.066;2023-03-02T08:32:37;74.07;;;33.13;;
23474;SDS011;11910;52.086;21.066;2023-03-02T08:35:06;59.88;;;30.85;;
23474;SDS011;11910;52.086;21.066;2023-03-02T08:37:34;60.60;;;31.08;;
23474;SDS011;11910;52.086;21.066;2023-03-02T08:40:02;66.25;;;31.25;;
23474;SDS011;11910;52.086;21.066;2023-03-02T08:42:28;66.72;;;32.55;;
23474;SDS011;11910;52.086;21.066;2023-03-02T08:44:53;54.58;;;29.60;;
23474;SDS011;11910;52.086;21.066;2023-03-02T08:47:22;57.55;;;29.95;;
23474;SDS011;11910;52.086;21.066;2023-03-02T08:49:56;54.90;;;29.30;;
23474;SDS011;11910;52.086;21.066;2023-03-02T08:52:22;57.97;;;28.75;;
23474;SDS011;11910;52.086;21.066;2023-03-02T08:54:47;50.10;;;26.50;;
23474;SDS011;11910;52.086;21.066;2023-03-02T08:57:13;50.47;;;27.13;;
23474;SDS011;11910;52.086;21.066;2023-03-02T08:59:38;48.08;;;26.10;;
23474;SDS011;11910;52.086;21.066;2023-03-02T09:02:04;46.92;;;24.85;;
23474;SDS011;11910;52.086;21.066;2023-03-02T09:04:32;50.53;;;25.58;;
23474;SDS011;11910;52.086;21.066;2023-03-02T09:06:58;43.05;;;24.98;;
23474;SDS011;11910;52.086;21.066;2023-03-02T09:09:26;48.92;;;27.15;;
23474;SDS011;11910;52.086;21.066;2023-03-02T09:11:52;50.78;;;27.58;;
23474;SDS011;11910;52.086;21.066;2023-03-02T09:14:24;44.40;;;26.52;;
23474;SDS011;11910;52.086;21.066;2023-03-02T09:16:51;42.97;;;24.13;;
23474;SDS011;11910;52.086;21.066;2023-03-02T09:19:17;46.05;;;26.00;;
23474;SDS011;11910;52.086;21.066;2023-03-02T09:21:44;45.35;;;25.55;;
23474;SDS011;11910;52.086;21.066;2023-03-02T09:24:13;45.17;;;24.80;;
23474;SDS011;11910;52.086;21.066;2023-03-02T09:26:39;50.13;;;26.25;;
23474;SDS011;11910;52.086;21.066;2023-03-02T09:29:07;46.60;;;25.70;;
23474;SDS011;11910;52.086;21.066;2023-03-02T09:31:33;47.55;;;26.48;;
23474;SDS011;11910;52.086;21.066;2023-03-02T09:34:00;43.85;;;25.67;;
23474;SDS011;11910;52.086;21.066;2023-03-02T09:36:28;40.42;;;24.08;;
23474;SDS011;11910;52.086;21.066;2023-03-02T09:38:56;48.97;;;26.03;;
23474;SDS011;11910;52.086;21.066;2023-03-02T09:41:42;38.38;;;21.13;;
23474;SDS011;11910;52.086;21.066;2023-03-02T09:52:08;41.28;;;23.38;;
23474;SDS011;11910;52.086;21.066;2023-03-02T09:54:37;37.35;;;21.77;;
23474;SDS011;11910;52.086;21.066;2023-03-02T09:57:23;42.00;;;23.40;;
23474;SDS011;11910;52.086;21.066;2023-03-02T09:59:56;40.88;;;23.65;;
23474;SDS011;11910;52.086;21.066;2023-03-02T10:02:30;40.92;;;23.00;;
23474;SDS011;11910;52.086;21.066;2023-03-02T10:05:04;38.88;;;22.73;;
23474;SDS011;11910;52.086;21.066;2023-03-02T10:07:37;37.28;;;22.63;;
23474;SDS011;11910;52.086;21.066;2023-03-02T10:15:35;36.28;;;21.33;;
23474;SDS011;11910;52.086;21.066;2023-03-02T10:18:07;35.10;;;21.15;;
23474;SDS011;11910;52.086;21.066;2023-03-02T10:26:00;44.97;;;24.95;;
23474;SDS011;11910;52.086;21.066;2023-03-02T10:28:33;41.90;;;24.60;;
23474;SDS011;11910;52.086;21.066;2023-03-02T10:36:30;62.90;;;31.85;;
23474;SDS011;11910;52.086;21.066;2023-03-02T10:39:05;70.50;;;36.03;;
23474;SDS011;11910;52.086;21.066;2023-03-02T10:41:37;57.60;;;31.15;;
23474;SDS011;11910;52.086;21.066;2023-03-02T10:44:35;67.15;;;35.75;;
23474;SDS011;11910;52.086;21.066;2023-03-02T10:47:02;61.42;;;35.10;;
23474;SDS011;11910;52.086;21.066;2023-03-02T10:49:30;60.75;;;32.95;;
23474;SDS011;11910;52.086;21.066;2023-03-02T10:52:02;59.80;;;33.55;;
23474;SDS011;11910;52.086;21.066;2023-03-02T10:54:48;53.40;;;29.13;;
23474;SDS011;11910;52.086;21.066;2023-03-02T10:57:27;59.88;;;32.72;;
23474;SDS011;11910;52.086;21.066;2023-03-02T10:59:56;52.72;;;29.75;;
23474;SDS011;11910;52.086;21.066;2023-03-02T11:02:32;58.25;;;31.88;;
23474;SDS011;11910;52.086;21.066;2023-03-02T11:07:50;21.40;;;14.02;;
23474;SDS011;11910;52.086;21.066;2023-03-02T11:10:28;20.55;;;12.55;;
23474;SDS011;11910;52.086;21.066;2023-03-02T11:13:02;17.27;;;11.45;;
23474;SDS011;11910;52.086;21.066;2023-03-02T11:15:46;15.25;;;10.60;;
23474;SDS011;11910;52.086;21.066;2023-03-02T11:18:19;16.53;;;10.83;;
23474;SDS011;11910;52.086;21.066;2023-03-02T11:20:51;17.88;;;11.85;;
23474;SDS011;11910;52.086;21.066;2023-03-02T11:26:20;14.73;;;9.18;;
23474;SDS011;11910;52.086;21.066;2023-03-02T11:31:22;11.68;;;8.57;;
23474;SDS011;11910;52.086;21.066;2023-03-02T11:33:56;10.85;;;7.68;;
23474;SDS011;11910;52.086;21.066;2023-03-02T11:42:23;9.10;;;6.53;;
23474;SDS011;11910;52.086;21.066;2023-03-02T11:44:53;9.23;;;6.13;;
23474;SDS011;11910;52.086;21.066;2023-03-02T11:47:19;7.93;;;6.00;;
23474;SDS011;11910;52.086;21.066;2023-03-02T11:49:53;9.55;;;6.45;;
23474;SDS011;11910;52.086;21.066;2023-03-02T11:52:22;8.48;;;6.10;;
23474;SDS011;11910;52.086;21.066;2023-03-02T11:57:38;9.43;;;5.72;;
23474;SDS011;11910;52.086;21.066;2023-03-02T12:00:57;9.82;;;6.55;;
23474;SDS011;11910;52.086;21.066;2023-03-02T12:05:35;12.52;;;6.55;;
23474;SDS011;11910;52.086;21.066;2023-03-02T12:10:54;9.48;;;6.60;;
23474;SDS011;11910;52.086;21.066;2023-03-02T12:13:28;11.10;;;6.70;;
23474;SDS011;11910;52.086;21.066;2023-03-02T12:16:03;10.13;;;6.40;;
23474;SDS011;11910;52.086;21.066;2023-03-02T12:18:44;10.18;;;6.45;;
23474;SDS011;11910;52.086;21.066;2023-03-02T12:21:17;9.20;;;6.45;;
23474;SDS011;11910;52.086;21.066;2023-03-02T12:31:49;11.40;;;7.85;;
23474;SDS011;11910;52.086;21.066;2023-03-02T12:36:48;11.57;;;7.72;;
23474;SDS011;11910;52.086;21.066;2023-03-02T12:39:26;12.00;;;7.90;;
23474;SDS011;11910;52.086;21.066;2023-03-02T12:47:50;9.85;;;6.65;;
23474;SDS011;11910;52.086;21.066;2023-03-02T12:50:23;14.00;;;7.32;;
23474;SDS011;11910;52.086;21.066;2023-03-02T12:53:01;12.00;;;7.55;;
23474;SDS011;11910;52.086;21.066;2023-03-02T12:55:31;12.55;;;7.20;;
23474;SDS011;11910;52.086;21.066;2023-03-02T12:58:00;12.57;;;7.50;;
23474;SDS011;11910;52.086;21.066;2023-03-02T13:00:27;10.18;;;7.15;;
23474;SDS011;11910;52.086;21.066;2023-03-02T13:02:58;11.32;;;7.13;;
23474;SDS011;11910;52.086;21.066;2023-03-02T13:05:29;11.10;;;7.20;;
23474;SDS011;11910;52.086;21.066;2023-03-02T13:08:02;10.93;;;7.40;;
23474;SDS011;11910;52.086;21.066;2023-03-02T13:10:52;10.07;;;7.20;;
23474;SDS011;11910;52.086;21.066;2023-03-02T13:16:19;12.05;;;7.65;;
23474;SDS011;11910;52.086;21.066;2023-03-02T13:18:50;12.38;;;8.02;;
23474;SDS011;11910;52.086;21.066;2023-03-02T13:21:20;12.18;;;8.15;;
23474;SDS011;11910;52.086;21.066;2023-03-02T13:23:55;12.50;;;8.00;;
23474;SDS011;11910;52.086;21.066;2023-03-02T13:26:25;12.43;;;7.70;;
23474;SDS011;11910;52.086;21.066;2023-03-02T13:28:59;12.30;;;8.00;;
23474;SDS011;11910;52.086;21.066;2023-03-02T13:31:25;12.73;;;8.80;;
23474;SDS011;11910;52.086;21.066;2023-03-02T13:33:54;11.90;;;7.53;;
23474;SDS011;11910;52.086;21.066;2023-03-02T13:36:28;12.63;;;7.80;;
23474;SDS011;11910;52.086;21.066;2023-03-02T13:38:59;13.15;;;9.00;;
23474;SDS011;11910;52.086;21.066;2023-03-02T13:41:31;15.10;;;9.90;;
23474;SDS011;11910;52.086;21.066;2023-03-02T13:43:58;19.10;;;11.57;;
23474;SDS011;11910;52.086;21.066;2023-03-02T13:46:41;17.75;;;11.00;;
23474;SDS011;11910;52.086;21.066;2023-03-02T13:49:09;15.90;;;10.70;;
23474;SDS011;11910;52.086;21.066;2023-03-02T13:51:36;17.15;;;10.57;;
23474;SDS011;11910;52.086;21.066;2023-03-02T13:54:04;15.05;;;9.45;;
23474;SDS011;11910;52.086;21.066;2023-03-02T13:57:10;13.88;;;9.60;;
23474;SDS011;11910;52.086;21.066;2023-03-02T13:59:40;13.40;;;9.13;;
23474;SDS011;11910;52.086;21.066;2023-03-02T14:05:08;17.13;;;9.57;;
23474;SDS011;11910;52.086;21.066;2023-03-02T14:07:43;14.68;;;9.70;;
23474;SDS011;11910;52.086;21.066;2023-03-02T14:10:10;14.65;;;9.80;;
23474;SDS011;11910;52.086;21.066;2023-03-02T14:12:41;14.32;;;9.38;;
23474;SDS011;11910;52.086;21.066;2023-03-02T14:15:13;13.90;;;9.27;;
23474;SDS011;11910;52.086;21.066;2023-03-02T14:17:43;14.48;;;9.75;;
23474;SDS011;11910;52.086;21.066;2023-03-02T14:20:10;14.40;;;9.48;;
23474;SDS011;11910;52.086;21.066;2023-03-02T14:22:37;15.43;;;10.00;;
23474;SDS011;11910;52.086;21.066;2023-03-02T14:25:03;13.35;;;9.20;;
23474;SDS011;11910;52.086;21.066;2023-03-02T14:27:28;13.32;;;9.55;;
23474;SDS011;11910;52.086;21.066;2023-03-02T14:29:55;15.40;;;10.68;;
23474;SDS011;11910;52.086;21.066;2023-03-02T14:32:20;13.45;;;9.55;;
23474;SDS011;11910;52.086;21.066;2023-03-02T14:34:46;14.43;;;9.73;;
23474;SDS011;11910;52.086;21.066;2023-03-02T14:37:13;14.48;;;9.40;;
23474;SDS011;11910;52.086;21.066;2023-03-02T14:39:45;15.20;;;10.20;;
23474;SDS011;11910;52.086;21.066;2023-03-02T14:42:15;15.10;;;9.82;;
23474;SDS011;11910;52.086;21.066;2023-03-02T14:44:46;14.13;;;9.98;;
23474;SDS011;11910;52.086;21.066;2023-03-02T14:47:13;15.80;;;9.88;;
23474;SDS011;11910;52.086;21.066;2023-03-02T14:49:43;15.65;;;10.23;;
23474;SDS011;11910;52.086;21.066;2023-03-02T14:54:49;15.27;;;9.93;;
23474;SDS011;11910;52.086;21.066;2023-03-02T14:57:24;14.18;;;9.65;;
23474;SDS011;11910;52.086;21.066;2023-03-02T14:59:52;14.65;;;9.88;;
23474;SDS011;11910;52.086;21.066;2023-03-02T15:02:26;17.35;;;10.45;;
23474;SDS011;11910;52.086;21.066;2023-03-02T15:04:53;16.58;;;9.80;;
23474;SDS011;11910;52.086;21.066;2023-03-02T15:07:24;16.70;;;11.35;;
23474;SDS011;11910;52.086;21.066;2023-03-02T15:09:53;20.48;;;13.02;;
23474;SDS011;11910;52.086;21.066;2023-03-02T15:12:22;17.95;;;12.30;;
23474;SDS011;11910;52.086;21.066;2023-03-02T15:14:48;16.95;;;12.27;;
23474;SDS011;11910;52.086;21.066;2023-03-02T15:17:13;22.77;;;13.90;;
23474;SDS011;11910;52.086;21.066;2023-03-02T15:19:39;18.98;;;12.77;;
23474;SDS011;11910;52.086;21.066;2023-03-02T15:22:04;20.02;;;13.55;;
23474;SDS011;11910;52.086;21.066;2023-03-02T15:24:32;17.17;;;12.25;;
23474;SDS011;11910;52.086;21.066;2023-03-02T15:26:58;21.05;;;13.75;;
23474;SDS011;11910;52.086;21.066;2023-03-02T15:29:24;21.73;;;13.70;;
23474;SDS011;11910;52.086;21.066;2023-03-02T15:31:50;21.20;;;13.80;;
23474;SDS011;11910;52.086;21.066;2023-03-02T15:34:18;17.45;;;11.98;;
23474;SDS011;11910;52.086;21.066;2023-03-02T15:36:46;18.27;;;12.05;;
23474;SDS011;11910;52.086;21.066;2023-03-02T15:39:14;16.42;;;11.80;;